Time;durP1;ratioP1;P1;durP2;ratioP2;P2;SDS_P1;SDS_P2;PMS_P1;PMS_P2;Temp;Humidity;BMP_temperature;BMP_pressure;BME280_temperature;BME280_humidity;BME280_pressure;Samples;Min_cycle;Max_cycle;Signal;HPM_P1;HPM_P2
2021/05/14 00:00:31;;;;;;;4.18;2.05;;;;;;;11.44;100.00;94091.75;10403789;28;20615;-74
2021/05/14 00:05:35;;;;;;;4.32;1.75;;;;;;;11.59;100.00;94069.16;10401893;28;20051;-74
2021/05/14 00:10:38;;;;;;;4.25;1.70;;;;;;;11.61;100.00;94066.19;10401816;28;20026;-74
2021/05/14 00:15:38;;;;;;;2.78;1.98;;;;;;;11.67;100.00;94059.63;10402733;28;20035;-74
2021/05/14 00:20:41;;;;;;;2.97;2.10;;;;;;;11.68;100.00;94061.22;10407316;28;20025;-73
2021/05/14 00:25:42;;;;;;;5.03;1.73;;;;;;;11.39;100.00;94054.16;10410457;28;20040;-73
2021/05/14 00:30:42;;;;;;;2.25;2.00;;;;;;;11.12;100.00;94062.94;10411246;28;20378;-73
2021/05/14 00:35:42;;;;;;;7.33;2.50;;;;;;;10.92;100.00;94066.75;10410525;28;20028;-73
2021/05/14 00:40:43;;;;;;;4.40;1.67;;;;;;;10.95;100.00;94076.91;10410802;28;20387;-73
2021/05/14 00:45:43;;;;;;;4.77;2.17;;;;;;;10.93;100.00;94071.03;10410214;28;20049;-73
2021/05/14 00:50:43;;;;;;;3.73;1.87;;;;;;;10.94;100.00;94080.69;10392577;28;20030;-74
2021/05/14 00:55:44;;;;;;;6.67;2.10;;;;;;;10.84;100.00;94086.22;10410207;28;20041;-73
2021/05/14 01:00:44;;;;;;;3.28;1.90;;;;;;;10.64;100.00;94095.34;10409563;28;20080;-73
2021/05/14 01:05:45;;;;;;;2.67;1.85;;;;;;;10.33;100.00;94109.94;10408203;28;20036;-74
2021/05/14 01:10:46;;;;;;;3.37;2.13;;;;;;;10.49;100.00;94088.28;10409169;28;20032;-73
2021/05/14 01:15:46;;;;;;;2.72;2.08;;;;;;;10.48;100.00;94089.38;10407919;28;20279;-74
2021/05/14 01:20:47;;;;;;;4.20;3.37;;;;;;;10.29;100.00;94095.47;10408845;28;20022;-74
2021/05/14 01:25:48;;;;;;;5.30;1.90;;;;;;;10.29;100.00;94095.47;10409010;28;20472;-74
2021/05/14 01:30:49;;;;;;;4.65;2.08;;;;;;;10.42;100.00;94100.19;10408128;28;20022;-73
2021/05/14 01:35:49;;;;;;;4.38;3.15;;;;;;;10.41;100.00;94084.38;10408409;28;20036;-73
2021/05/14 01:40:50;;;;;;;3.80;1.70;;;;;;;10.32;100.00;94086.84;10408466;28;20036;-74
2021/05/14 01:45:51;;;;;;;2.93;1.83;;;;;;;10.29;100.00;94106.22;10408340;28;20176;-73
2021/05/14 01:50:51;;;;;;;5.93;2.00;;;;;;;10.31;100.00;94096.00;10408413;28;20470;-73
2021/05/14 01:55:51;;;;;;;9.23;3.40;;;;;;;10.22;100.00;94101.19;10407855;28;20033;-73
2021/05/14 02:00:52;;;;;;;10.52;2.33;;;;;;;10.36;100.00;94105.91;10407720;28;20021;-74
2021/05/14 02:05:52;;;;;;;5.13;1.80;;;;;;;10.45;100.00;94112.22;10407185;28;20481;-74
2021/05/14 02:10:53;;;;;;;6.05;1.90;;;;;;;10.46;100.00;94107.69;10407200;28;20032;-74
2021/05/14 02:15:54;;;;;;;3.95;1.90;;;;;;;10.50;100.00;94106.00;10407306;28;20029;-73
2021/05/14 02:20:54;;;;;;;6.07;2.28;;;;;;;10.42;100.00;94108.25;10406502;28;20103;-73
2021/05/14 02:25:55;;;;;;;7.23;3.40;;;;;;;10.45;100.00;94114.91;10388805;28;20029;-74
2021/05/14 02:30:56;;;;;;;9.38;2.63;;;;;;;10.18;100.00;94110.91;10388727;28;20086;-74
2021/05/14 02:35:56;;;;;;;6.55;2.28;;;;;;;9.99;100.00;94120.78;10406247;28;20041;-74
2021/05/14 02:40:57;;;;;;;5.63;2.50;;;;;;;10.05;100.00;94119.66;10405669;28;20026;-74
2021/05/14 02:45:57;;;;;;;3.92;2.53;;;;;;;9.93;100.00;94101.25;10405361;28;20555;-74
2021/05/14 02:50:58;;;;;;;8.60;2.47;;;;;;;9.91;100.00;94116.84;10404786;28;20146;-74
2021/05/14 02:55:58;;;;;;;4.63;2.95;;;;;;;9.94;100.00;94113.59;10404440;28;20120;-73
2021/05/14 03:00:58;;;;;;;6.07;3.08;;;;;;;10.00;100.00;94133.13;10404269;28;20116;-71
2021/05/14 03:05:59;;;;;;;4.20;3.00;;;;;;;9.67;100.00;94132.88;10404330;28;20025;-71
2021/05/14 03:10:59;;;;;;;10.17;3.43;;;;;;;9.74;100.00;94126.13;10405006;28;20338;-71
2021/05/14 03:16:00;;;;;;;6.63;3.30;;;;;;;9.71;100.00;94124.00;10404768;28;20025;-70
2021/05/14 03:21:00;;;;;;;7.38;3.10;;;;;;;9.65;100.00;94143.91;10401372;28;20037;-70
2021/05/14 03:26:00;;;;;;;6.13;2.63;;;;;;;9.71;100.00;94150.03;10404374;28;20090;-71
2021/05/14 03:31:01;;;;;;;10.87;3.63;;;;;;;9.49;100.00;94137.06;10404280;28;20025;-71
2021/05/14 03:36:01;;;;;;;11.20;4.50;;;;;;;9.41;100.00;94157.25;10404583;28;20033;-71
2021/05/14 03:41:16;;;;;;;9.10;5.05;;;;;;;9.39;100.00;94141.44;10404318;28;20041;-71
2021/05/14 03:46:16;;;;;;;12.27;5.15;;;;;;;9.46;100.00;94138.44;10403670;28;20060;-70
2021/05/14 03:51:17;;;;;;;9.30;4.67;;;;;;;9.50;100.00;94152.91;10386264;28;20029;-71
2021/05/14 03:56:17;;;;;;;6.77;4.40;;;;;;;9.54;100.00;94150.44;10410437;28;20040;-70
2021/05/14 04:01:18;;;;;;;18.70;4.80;;;;;;;9.51;100.00;94149.09;10411897;28;20276;-71
2021/05/14 04:06:18;;;;;;;11.73;5.10;;;;;;;9.70;100.00;94146.53;10412025;28;20032;-70
2021/05/14 04:11:31;;;;;;;11.17;4.83;;;;;;;9.85;100.00;94159.03;10411427;28;20030;-71
2021/05/14 04:16:32;;;;;;;14.77;6.72;;;;;;;10.00;100.00;94141.97;10409820;28;20029;-72
2021/05/14 04:21:32;;;;;;;9.47;5.00;;;;;;;10.15;100.00;94145.59;10409549;28;20021;-73
2021/05/14 04:26:33;;;;;;;7.60;4.78;;;;;;;10.32;100.00;94154.00;10410123;28;20279;-73
2021/05/14 04:31:33;;;;;;;12.25;5.00;;;;;;;10.42;100.00;94167.34;10410569;28;20473;-72
2021/05/14 04:36:34;;;;;;;15.48;4.93;;;;;;;10.59;100.00;94174.13;10406515;28;20033;-73
2021/05/14 04:41:35;;;;;;;7.83;4.70;;;;;;;11.12;100.00;94186.63;10411162;28;20025;-72
2021/05/14 04:46:35;;;;;;;14.55;7.32;;;;;;;11.96;100.00;94179.78;10411968;28;20300;-73
2021/05/14 04:51:36;;;;;;;9.70;6.27;;;;;;;12.78;100.00;94185.53;10409795;28;20037;-73
2021/05/14 04:56:37;;;;;;;9.75;4.65;;;;;;;13.27;100.00;94185.88;10408185;28;20712;-72
2021/05/14 05:01:40;;;;;;;17.52;6.03;;;;;;;14.11;100.00;94181.78;10407342;28;20025;-72
2021/05/14 05:06:41;;;;;;;11.00;5.32;;;;;;;14.99;100.00;94169.44;10405576;28;20052;-72
2021/05/14 05:11:41;;;;;;;16.65;6.32;;;;;;;15.80;100.00;94185.50;10406312;28;20033;-72
2021/05/14 05:16:41;;;;;;;12.75;5.72;;;;;;;16.74;100.00;94187.50;10389902;28;20021;-72
2021/05/14 05:21:42;;;;;;;12.27;5.10;;;;;;;17.48;97.83;94182.66;10408779;28;20480;-74
2021/05/14 05:26:42;;;;;;;16.13;4.70;;;;;;;17.57;96.78;94190.78;10408565;28;20111;-72
2021/05/14 05:31:43;;;;;;;8.73;3.53;;;;;;;18.39;83.89;94179.34;10408014;28;20276;-71
2021/05/14 05:36:43;;;;;;;12.50;5.45;;;;;;;17.41;90.90;94199.50;10407246;28;20781;-73
2021/05/14 05:41:43;;;;;;;11.97;4.80;;;;;;;17.13;94.57;94204.59;10407467;28;20397;-72
2021/05/14 05:46:44;;;;;;;9.93;4.20;;;;;;;16.41;97.66;94198.97;10406998;28;20116;-74
2021/05/14 05:51:44;;;;;;;6.37;3.50;;;;;;;15.88;100.00;94199.03;10406992;28;20283;-73
2021/05/14 05:56:45;;;;;;;11.83;4.77;;;;;;;14.97;100.00;94219.59;10389395;28;20025;-74
2021/05/14 06:01:46;;;;;;;10.27;4.90;;;;;;;13.97;100.00;94227.00;10406318;28;20470;-73
2021/05/14 06:06:46;;;;;;;12.93;4.90;;;;;;;13.57;100.00;94234.94;10406847;28;20090;-73
2021/05/14 06:11:47;;;;;;;11.43;6.07;;;;;;;13.25;100.00;94232.06;10406509;28;20021;-73
2021/05/14 06:16:47;;;;;;;16.03;6.77;;;;;;;14.30;100.00;94235.66;10388374;28;20018;-73
2021/05/14 06:21:49;;;;;;;21.20;6.00;;;;;;;14.10;100.00;94228.03;10404285;28;20272;-73
2021/05/14 06:26:50;;;;;;;17.92;7.43;;;;;;;13.95;100.00;94238.13;10404884;28;20272;-73
2021/05/14 06:31:50;;;;;;;17.90;6.20;;;;;;;14.05;100.00;94230.84;10404681;28;20029;-73
2021/05/14 06:36:51;;;;;;;19.67;6.95;;;;;;;14.22;100.00;94220.16;10405215;28;20381;-73
2021/05/14 06:41:51;;;;;;;12.63;5.43;;;;;;;14.09;100.00;94215.63;10405392;28;20468;-73
2021/05/14 06:46:51;;;;;;;10.27;4.17;;;;;;;14.41;100.00;94219.16;10404519;28;20060;-72
2021/05/14 06:51:52;;;;;;;11.50;5.67;;;;;;;15.10;100.00;94209.75;10403437;28;20291;-73
2021/05/14 06:56:52;;;;;;;16.63;5.13;;;;;;;15.28;100.00;94224.94;10403525;28;20033;-73
2021/05/14 07:01:52;;;;;;;12.07;3.90;;;;;;;15.86;100.00;94231.06;10403661;28;20476;-73
2021/05/14 07:06:53;;;;;;;7.28;2.92;;;;;;;16.56;95.38;94244.56;10404295;28;20018;-73
2021/05/14 07:11:53;;;;;;;6.63;2.23;;;;;;;16.72;79.05;94236.69;10404251;28;20523;-73
2021/05/14 07:16:54;;;;;;;7.43;1.77;;;;;;;17.05;84.02;94230.69;10404388;28;20280;-73
2021/05/14 07:21:55;;;;;;;5.00;1.65;;;;;;;17.14;78.02;94229.84;10403962;28;20029;-72
2021/05/14 07:26:55;;;;;;;5.05;1.60;;;;;;;17.30;78.46;94221.94;10403684;28;20025;-72
2021/05/14 07:31:55;;;;;;;2.23;1.10;;;;;;;17.60;70.58;94228.94;10403217;28;20029;-72
2021/05/14 07:36:56;;;;;;;7.87;1.60;;;;;;;17.38;62.58;94221.88;10385861;28;20497;-72
2021/05/14 07:41:56;;;;;;;8.10;1.80;;;;;;;17.69;62.28;94228.84;10403328;28;20279;-72
2021/05/14 07:46:57;;;;;;;4.40;1.63;;;;;;;19.37;61.35;94221.44;10404602;28;20071;-72
2021/05/14 07:51:58;;;;;;;4.90;1.42;;;;;;;23.41;42.03;94205.53;10404303;28;20584;-72
2021/05/14 07:56:58;;;;;;;4.03;1.77;;;;;;;25.64;38.33;94197.03;10404967;28;20033;-71
2021/05/14 08:01:58;;;;;;;9.43;1.47;;;;;;;27.19;33.91;94199.63;10404238;28;20388;-72
2021/05/14 08:06:59;;;;;;;1.50;0.53;;;;;;;28.35;31.11;94203.03;10403632;28;20434;-72
2021/05/14 08:12:03;;;;;;;4.63;0.87;;;;;;;28.12;29.57;94193.25;10403207;28;20276;-72
2021/05/14 08:17:04;;;;;;;3.70;0.40;;;;;;;27.47;31.62;94195.31;10403403;28;20033;-72
2021/05/14 08:22:04;;;;;;;2.60;0.50;;;;;;;26.29;29.97;94197.44;10402489;28;20338;-72
2021/05/14 08:27:05;;;;;;;2.97;0.30;;;;;;;25.54;31.70;94204.06;10401790;28;20137;-72
2021/05/14 08:32:06;;;;;;;1.30;0.32;;;;;;;25.38;30.99;94195.28;10402090;28;20782;-72
2021/05/14 08:37:06;;;;;;;5.82;0.40;;;;;;;25.51;30.58;94193.00;10402774;28;20033;-72
2021/05/14 08:42:06;;;;;;;3.97;0.63;;;;;;;25.31;31.75;94186.94;10408440;28;20052;-72
2021/05/14 08:47:08;;;;;;;2.90;0.30;;;;;;;24.80;29.68;94191.25;10409684;28;20480;-72
2021/05/14 08:52:09;;;;;;;2.10;0.82;;;;;;;25.46;32.40;94187.88;10409305;28;20564;-72
2021/05/14 08:57:10;;;;;;;1.52;0.57;;;;;;;27.12;28.96;94183.84;10409327;28;20076;-72
2021/05/14 09:02:13;;;;;;;0.55;0.30;;;;;;;25.92;29.15;94190.13;10409633;28;20128;-72
2021/05/14 09:07:16;;;;;;;3.38;0.35;;;;;;;25.42;31.63;94196.91;10391894;28;20029;-72
2021/05/14 09:12:31;;;;;;;3.28;0.52;;;;;;;25.88;31.17;94195.59;10408992;28;20044;-73
2021/05/14 09:17:32;;;;;;;2.53;0.47;;;;;;;26.54;29.46;94202.22;10409429;28;20037;-72
2021/05/14 09:22:34;;;;;;;6.67;0.53;;;;;;;25.68;32.84;94206.13;10409324;28;20036;-72
2021/05/14 09:27:39;;;;;;;3.47;0.50;;;;;;;24.60;31.89;94205.16;10408280;28;20401;-72
2021/05/14 09:32:40;;;;;;;0.63;0.30;;;;;;;25.65;30.84;94193.13;10408913;28;20033;-72
2021/05/14 09:37:50;;;;;;;2.50;0.50;;;;;;;26.30;29.22;94190.72;10408279;28;20060;-72
2021/05/14 09:43:09;;;;;;;5.25;0.45;;;;;;;25.07;31.38;94195.41;10408682;28;20117;-73
2021/05/14 09:48:18;;;;;;;1.42;0.30;;;;;;;25.63;31.75;94184.44;10407837;28;20057;-71
2021/05/14 09:53:24;;;;;;;2.40;0.60;;;;;;;26.76;28.98;94186.56;10407886;28;20029;-73
2021/05/14 09:58:27;;;;;;;2.47;0.68;;;;;;;27.26;28.37;94172.03;10407729;28;20040;-72
2021/05/14 10:03:31;;;;;;;1.27;0.47;;;;;;;25.83;30.50;94181.41;10389892;28;20025;-72
2021/05/14 10:08:33;;;;;;;3.45;0.70;;;;;;;24.27;33.74;94189.47;10407217;28;20052;-72
2021/05/14 10:13:36;;;;;;;5.35;0.52;;;;;;;24.89;32.00;94205.44;10408057;28;20503;-72
2021/05/14 10:18:44;;;;;;;5.45;0.70;;;;;;;26.10;30.90;94218.56;10389648;28;20750;-72
2021/05/14 10:23:46;;;;;;;5.97;0.68;;;;;;;27.22;30.79;94216.16;10408003;28;20025;-71
2021/05/14 10:28:48;;;;;;;5.57;0.82;;;;;;;25.30;34.42;94218.38;10406403;28;20094;-71
2021/05/14 10:33:55;;;;;;;7.13;1.17;;;;;;;23.62;35.74;94222.28;10406184;28;20025;-71
2021/05/14 10:39:32;;;;;;;3.28;0.70;;;;;;;22.14;39.78;94225.13;10388212;28;20037;-72
2021/05/14 10:44:46;;;;;;;2.97;0.70;;;;;;;21.41;42.05;94238.34;10308676;28;20073;-72
2021/05/14 10:49:49;;;;;;;2.10;0.82;;;;;;;22.45;41.81;94212.47;10386888;28;20030;-72
2021/05/14 10:54:51;;;;;;;3.38;1.23;;;;;;;25.08;37.85;94196.97;10404914;28;20076;-73
2021/05/14 10:59:51;;;;;;;5.22;1.13;;;;;;;26.07;36.13;94202.81;10388503;28;20026;-73
2021/05/14 11:04:51;;;;;;;6.70;1.10;;;;;;;26.33;35.92;94209.25;10405447;28;20037;-73
2021/05/14 11:10:14;;;;;;;1.63;0.40;;;;;;;23.88;37.21;94212.50;10405966;28;20033;-73
2021/05/14 11:15:14;;;;;;;1.40;0.70;;;;;;;21.78;39.14;94218.91;10405954;28;20060;-72
2021/05/14 11:20:22;;;;;;;1.42;0.93;;;;;;;22.10;41.09;94215.25;10405280;28;20486;-72
2021/05/14 11:25:22;;;;;;;26.65;1.27;;;;;;;21.76;40.05;94209.47;10405511;28;20061;-72
2021/05/14 11:30:23;;;;;;;1.50;0.63;;;;;;;21.55;41.40;94220.72;10405151;28;20400;-72
2021/05/14 11:35:25;;;;;;;2.33;0.47;;;;;;;20.38;44.90;94216.19;10404894;28;20025;-71
2021/05/14 11:40:27;;;;;;;1.23;0.20;;;;;;;20.52;46.06;94209.56;10404887;28;20029;-73
2021/05/14 11:45:32;;;;;;;3.80;0.50;;;;;;;20.56;43.37;94204.97;10404282;28;20469;-72
2021/05/14 11:50:38;;;;;;;2.03;0.75;;;;;;;20.21;39.85;94200.94;10404594;28;20064;-72
2021/05/14 11:55:41;;;;;;;4.00;0.88;;;;;;;20.85;42.87;94192.88;10404924;28;20057;-72
2021/05/14 12:00:44;;;;;;;2.83;0.63;;;;;;;21.24;41.31;94187.59;10404145;28;20451;-72
2021/05/14 12:05:46;;;;;;;5.25;0.95;;;;;;;21.43;38.46;94175.88;10404008;28;20488;-72
2021/05/14 12:11:02;;;;;;;4.35;0.88;;;;;;;21.41;36.58;94182.88;10404070;28;20400;-72
2021/05/14 12:16:04;;;;;;;5.05;0.60;;;;;;;21.65;37.77;94185.41;10419373;28;20083;-72
2021/05/14 12:21:11;;;;;;;2.17;0.70;;;;;;;20.55;37.95;94192.47;10412387;28;20033;-72
2021/05/14 12:26:11;;;;;;;2.13;0.50;;;;;;;20.25;38.52;94206.50;10412397;28;20083;-72
2021/05/14 12:31:27;;;;;;;2.10;0.50;;;;;;;19.98;38.42;94203.41;10394115;28;20447;-72
2021/05/14 12:36:29;;;;;;;4.40;0.52;;;;;;;19.52;38.90;94209.06;10411497;28;20103;-72
2021/05/14 12:42:00;;;;;;;4.85;0.73;;;;;;;18.74;41.09;94241.56;10411816;28;20034;-72
2021/05/14 12:47:04;;;;;;;4.78;0.85;;;;;;;18.23;45.88;94260.78;10409597;28;20543;-72
2021/05/14 12:52:08;;;;;;;0.90;0.22;;;;;;;18.15;46.95;94263.59;10410782;28;20033;-72
2021/05/14 12:57:22;;;;;;;5.28;0.70;;;;;;;17.81;51.81;94260.78;10410916;28;20033;-72
2021/05/14 13:02:30;;;;;;;2.58;0.43;;;;;;;17.22;50.60;94267.81;10411216;28;20044;-72
2021/05/14 13:07:31;;;;;;;4.00;0.50;;;;;;;17.32;53.39;94271.31;10410539;28;20396;-72
2021/05/14 13:12:31;;;;;;;0.55;0.30;;;;;;;17.00;49.57;94268.88;10410844;28;20852;-72
2021/05/14 13:17:32;;;;;;;11.07;1.27;;;;;;;17.14;52.34;94254.28;10410020;28;20071;-72
2021/05/14 13:22:32;;;;;;;1.73;0.67;;;;;;;17.29;53.47;94269.22;10410217;28;20045;-72
2021/05/14 13:27:33;;;;;;;1.27;0.30;;;;;;;17.38;51.26;94265.34;10409010;28;20631;-72
2021/05/14 13:32:34;;;;;;;1.05;0.20;;;;;;;17.62;46.94;94252.25;10409991;28;20469;-72
2021/05/14 13:37:34;;;;;;;1.23;0.40;;;;;;;17.94;45.84;94250.78;10408916;28;20056;-72
2021/05/14 13:42:35;;;;;;;0.47;0.10;;;;;;;18.32;46.06;94246.31;10391130;28;20071;-72
2021/05/14 13:47:36;;;;;;;2.13;0.30;;;;;;;18.91;43.98;94254.22;10390853;28;20057;-72
2021/05/14 13:52:37;;;;;;;2.50;0.20;;;;;;;19.26;42.00;94258.47;10408298;28;20136;-72
2021/05/14 13:57:37;;;;;;;0.73;0.30;;;;;;;19.25;40.86;94270.50;10408575;28;20037;-72
2021/05/14 14:02:37;;;;;;;1.80;0.50;;;;;;;19.16;41.15;94283.41;10408270;28;20172;-72
2021/05/14 14:07:38;;;;;;;0.80;0.30;;;;;;;19.44;42.83;94287.06;10408306;28;20017;-72
2021/05/14 14:12:39;;;;;;;2.13;0.60;;;;;;;19.54;42.67;94277.66;10407803;28;20029;-72
2021/05/14 14:17:40;;;;;;;0.85;0.30;;;;;;;18.98;42.47;94261.03;10407600;28;20029;-72
2021/05/14 14:22:41;;;;;;;2.03;0.20;;;;;;;18.87;42.71;94279.72;10407447;28;20431;-72
2021/05/14 14:27:41;;;;;;;2.85;0.55;;;;;;;18.47;41.77;94297.38;10405869;28;20063;-72
2021/05/14 14:32:42;;;;;;;2.10;0.50;;;;;;;18.58;41.37;94306.72;10406032;28;20079;-72
2021/05/14 14:37:43;;;;;;;2.72;0.30;;;;;;;18.49;40.52;94313.38;10406401;28;20056;-72
2021/05/14 14:42:44;;;;;;;0.93;0.20;;;;;;;18.27;41.53;94318.03;10388375;28;20057;-72
2021/05/14 14:47:44;;;;;;;2.45;0.10;;;;;;;18.15;42.62;94324.19;10406254;28;20157;-72
2021/05/14 14:52:44;;;;;;;1.85;0.30;;;;;;;17.84;45.54;94319.91;10402828;28;20033;-72
2021/05/14 14:57:45;;;;;;;1.10;0.20;;;;;;;17.65;47.31;94305.94;10393622;28;20068;-72
2021/05/14 15:02:46;;;;;;;0.30;0.20;;;;;;;17.49;46.01;94290.22;10405809;28;20029;-72
2021/05/14 15:07:46;;;;;;;0.60;0.30;;;;;;;17.70;46.54;94297.63;10405724;28;20032;-72
2021/05/14 15:12:47;;;;;;;3.35;0.40;;;;;;;17.88;42.16;94292.88;10405730;28;20025;-72
2021/05/14 15:17:48;;;;;;;3.93;0.40;;;;;;;18.07;42.27;94289.69;10402826;28;20105;-72
2021/05/14 15:22:48;;;;;;;0.32;0.30;;;;;;;18.16;42.50;94287.72;10401158;28;20048;-72
2021/05/14 15:27:49;;;;;;;1.15;0.45;;;;;;;18.09;43.75;94285.53;10400653;28;20021;-72
2021/05/14 15:32:49;;;;;;;0.65;0.40;;;;;;;18.02;45.42;94292.66;10401984;28;20039;-72
2021/05/14 15:37:49;;;;;;;5.23;0.80;;;;;;;17.76;48.70;94286.22;10404651;28;20037;-72
2021/05/14 15:42:51;;;;;;;3.73;1.00;;;;;;;17.45;51.78;94296.63;10405077;28;20036;-72
2021/05/14 15:47:51;;;;;;;1.38;0.57;;;;;;;17.16;51.26;94290.84;10437735;28;20044;-72
2021/05/14 15:52:52;;;;;;;2.20;0.70;;;;;;;17.15;52.58;94293.88;10445271;28;20049;-72
2021/05/14 15:57:54;;;;;;;3.90;0.80;;;;;;;17.19;51.29;94290.22;10445684;28;20394;-72
2021/05/14 16:02:57;;;;;;;2.35;0.38;;;;;;;17.15;52.11;94289.25;10445805;28;20033;-72
2021/05/14 16:07:58;;;;;;;7.60;0.90;;;;;;;17.06;54.48;94285.78;10445737;28;20025;-72
2021/05/14 16:12:58;;;;;;;1.42;0.55;;;;;;;16.96;50.50;94281.50;10445646;28;20033;-72
2021/05/14 16:18:02;;;;;;;0.50;0.47;;;;;;;16.98;50.32;94284.69;10445645;28;20116;-72
2021/05/14 16:23:05;;;;;;;3.20;0.60;;;;;;;16.94;49.68;94286.47;10445191;28;20484;-72
2021/05/14 16:28:07;;;;;;;0.85;0.50;;;;;;;16.86;50.27;94281.81;10445445;28;20029;-72
2021/05/14 16:33:08;;;;;;;1.33;0.30;;;;;;;16.78;50.84;94285.38;10445032;28;20040;-72
2021/05/14 16:38:09;;;;;;;1.02;0.40;;;;;;;16.71;51.07;94269.56;10427075;28;20049;-72
2021/05/14 16:43:09;;;;;;;3.60;1.70;;;;;;;16.72;52.03;94287.44;10408070;28;20029;-72
2021/05/14 16:48:10;;;;;;;1.55;0.68;;;;;;;16.68;52.85;94270.22;10391410;28;20049;-71
2021/05/14 16:53:10;;;;;;;1.13;0.87;;;;;;;16.61;53.77;94276.13;10384390;28;20041;-72
2021/05/14 16:58:11;;;;;;;2.80;0.93;;;;;;;16.68;53.50;94284.56;10374099;28;20318;-71
2021/05/14 17:03:11;;;;;;;1.23;0.60;;;;;;;16.58;53.52;94276.78;10377155;28;20037;-71
2021/05/14 17:08:11;;;;;;;4.27;1.47;;;;;;;16.60;56.10;94277.25;10351249;28;20022;-71
2021/05/14 17:13:12;;;;;;;8.87;2.43;;;;;;;16.60;54.00;94279.97;10379862;28;20112;-72
2021/05/14 17:18:12;;;;;;;1.60;1.00;;;;;;;16.52;55.52;94281.59;10409756;28;20022;-71
2021/05/14 17:23:13;;;;;;;5.13;1.13;;;;;;;16.50;58.39;94285.75;10408725;28;20022;-71
2021/05/14 17:28:13;;;;;;;6.35;2.40;;;;;;;16.47;59.41;94281.75;10403849;28;20025;-72
2021/05/14 17:33:13;;;;;;;8.48;1.23;;;;;;;16.38;57.81;94284.47;10393447;28;20426;-72
2021/05/14 17:38:14;;;;;;;5.47;1.17;;;;;;;16.27;60.41;94282.41;10387539;28;20541;-72
2021/05/14 17:43:14;;;;;;;2.80;1.25;;;;;;;16.24;59.97;94283.84;10387286;28;20076;-71
2021/05/14 17:48:18;;;;;;;9.18;1.50;;;;;;;16.04;66.73;94283.34;10367936;28;20373;-72
2021/05/14 17:53:18;;;;;;;2.78;1.00;;;;;;;15.89;66.53;94290.06;10386520;28;20034;-72
2021/05/14 17:58:18;;;;;;;3.23;1.57;;;;;;;15.73;67.18;94295.09;10383994;28;20026;-72
2021/05/14 18:03:19;;;;;;;4.20;1.67;;;;;;;15.65;66.69;94295.09;10386367;28;20018;-72
2021/05/14 18:08:19;;;;;;;5.13;1.70;;;;;;;15.68;64.96;94305.28;10391943;28;20503;-78
2021/05/14 18:13:20;;;;;;;6.57;2.87;;;;;;;15.60;66.40;94304.19;10385342;28;20052;-78
2021/05/14 18:18:29;;;;;;;3.73;1.77;;;;;;;15.46;72.85;94308.91;10384110;28;20292;-78
2021/05/14 18:23:30;;;;;;;3.85;1.63;;;;;;;15.07;74.53;94311.34;10399298;28;20287;-78
2021/05/14 18:28:30;;;;;;;3.87;1.60;;;;;;;15.15;74.53;94324.09;10395926;28;20028;-78
2021/05/14 18:33:31;;;;;;;6.38;1.67;;;;;;;15.04;77.85;94322.75;10407044;28;20284;-78
2021/05/14 18:38:32;;;;;;;8.20;2.70;;;;;;;14.82;79.59;94340.66;10406305;28;20489;-79
2021/05/14 18:43:33;;;;;;;5.80;2.60;;;;;;;14.69;76.29;94346.91;10407024;28;20029;-78
2021/05/14 18:48:33;;;;;;;7.90;2.28;;;;;;;14.62;78.31;94346.53;10388442;28;20054;-77
2021/05/14 18:53:33;;;;;;;9.57;2.57;;;;;;;14.56;78.10;94355.88;10347972;28;20042;-78
2021/05/14 18:58:35;;;;;;;10.50;3.07;;;;;;;14.47;80.79;94367.44;10365309;28;20336;-78
2021/05/14 19:03:36;;;;;;;6.45;2.22;;;;;;;14.49;79.40;94367.91;10365128;28;20115;-78
2021/05/14 19:08:36;;;;;;;5.67;1.97;;;;;;;14.58;79.62;94372.59;10364941;28;20137;-78
2021/05/14 19:13:37;;;;;;;9.40;2.42;;;;;;;14.63;75.38;94389.53;10347175;28;20273;-78
2021/05/14 19:18:37;;;;;;;4.57;1.73;;;;;;;14.40;79.00;94382.47;10365083;28;20037;-78
2021/05/14 19:23:49;;;;;;;7.37;2.80;;;;;;;14.16;86.94;94384.34;10363576;28;20038;-78
2021/05/14 19:50:05;;;;;;;2.92;1.58;;;;;;;13.65;87.32;94394.31;10394858;28;20480;-78
2021/05/14 19:55:07;;;;;;;6.07;1.85;;;;;;;13.59;88.99;94395.53;10404754;28;20037;-78
2021/05/14 20:00:08;;;;;;;2.58;1.40;;;;;;;13.59;89.17;94402.81;10410262;28;20026;-78
2021/05/14 20:05:10;;;;;;;5.03;2.10;;;;;;;13.63;88.52;94396.53;10403600;28;20033;-77
2021/05/14 20:10:11;;;;;;;3.83;1.85;;;;;;;13.49;91.20;94406.50;10404344;28;20027;-77
2021/05/14 20:15:12;;;;;;;9.77;3.83;;;;;;;13.35;99.40;94409.19;10404003;28;20071;-77
2021/05/14 20:20:12;;;;;;;2.65;2.30;;;;;;;13.28;94.73;94414.16;10403999;28;20037;-77
2021/05/14 20:25:13;;;;;;;5.32;1.40;;;;;;;13.39;93.42;94399.41;10404264;28;20025;-78
2021/05/14 20:30:14;;;;;;;5.60;2.33;;;;;;;13.45;97.28;94405.50;10403417;28;20029;-78
2021/05/14 20:35:16;;;;;;;4.85;2.00;;;;;;;13.38;98.32;94402.41;10404749;28;20123;-78
2021/05/14 20:40:16;;;;;;;6.28;1.88;;;;;;;13.34;95.96;94400.28;10411677;28;20032;-78
2021/05/14 20:45:16;;;;;;;6.23;1.70;;;;;;;13.41;100.00;94394.53;10411551;28;20518;-78
2021/05/14 20:50:19;;;;;;;6.67;2.20;;;;;;;13.35;96.66;94398.41;10388039;28;20092;-77
2021/05/14 20:55:19;;;;;;;2.03;1.20;;;;;;;12.97;100.00;94403.91;10370116;28;20545;-78
2021/05/14 21:00:23;;;;;;;6.18;0.98;;;;;;;12.33;100.00;94399.00;10369691;28;20040;-77
2021/05/14 21:05:24;;;;;;;5.18;0.90;;;;;;;11.92;100.00;94392.25;10369820;28;20044;-78
2021/05/14 21:10:25;;;;;;;3.60;1.13;;;;;;;11.73;100.00;94394.91;10369749;28;20037;-77
2021/05/14 21:15:26;;;;;;;3.03;1.42;;;;;;;11.61;100.00;94383.78;10369275;28;20038;-78
2021/05/14 21:20:26;;;;;;;6.13;1.10;;;;;;;11.57;100.00;94397.00;10367956;28;20421;-78
2021/05/14 21:25:27;;;;;;;1.77;0.95;;;;;;;11.50;100.00;94398.44;10369087;28;20030;-78
2021/05/14 21:30:27;;;;;;;5.03;1.35;;;;;;;11.49;100.00;94394.94;10368766;28;20029;-77
2021/05/14 21:35:28;;;;;;;3.00;1.40;;;;;;;11.57;100.00;94417.75;10368319;28;20038;-77
2021/05/14 21:40:28;;;;;;;1.17;0.98;;;;;;;11.46;100.00;94414.38;10368068;28;20088;-77
2021/05/14 21:45:29;;;;;;;2.20;1.08;;;;;;;11.42;100.00;94421.41;10350514;28;20056;-78
2021/05/14 21:50:29;;;;;;;1.70;0.80;;;;;;;11.44;100.00;94420.03;10377752;28;20412;-78
2021/05/14 21:55:29;;;;;;;3.70;1.17;;;;;;;11.46;100.00;94411.69;10367084;28;20045;-78
2021/05/14 22:00:30;;;;;;;2.47;0.80;;;;;;;11.55;100.00;94414.53;10368174;28;20033;-77
2021/05/14 22:05:31;;;;;;;12.18;1.10;;;;;;;11.33;100.00;94428.50;10401606;28;20287;-82
2021/05/14 22:10:31;;;;;;;2.17;1.13;;;;;;;10.98;100.00;94425.06;10448768;28;20399;-82
2021/05/14 22:15:31;;;;;;;5.73;1.60;;;;;;;11.03;100.00;94428.50;10439124;28;20032;-82
2021/05/14 22:20:33;;;;;;;4.13;1.43;;;;;;;10.99;100.00;94430.16;10456232;28;20296;-82
2021/05/14 22:25:35;;;;;;;5.10;1.52;;;;;;;10.85;100.00;94421.94;10456245;28;20036;-82
2021/05/14 22:30:35;;;;;;;7.90;3.40;;;;;;;11.08;100.00;94423.09;10454665;28;20104;-82
2021/05/14 22:35:36;;;;;;;2.43;1.20;;;;;;;11.18;100.00;94432.94;10446374;28;20029;-82
2021/05/14 22:40:36;;;;;;;1.95;1.70;;;;;;;11.12;100.00;94431.38;10451502;28;20116;-82
2021/05/14 22:45:36;;;;;;;2.53;0.90;;;;;;;11.12;100.00;94412.53;10453449;28;20123;-83
2021/05/14 22:50:38;;;;;;;2.83;1.23;;;;;;;11.06;100.00;94414.47;10455230;28;20116;-81
2021/05/14 22:55:39;;;;;;;5.07;2.15;;;;;;;10.90;100.00;94410.34;10437131;28;20039;-82
2021/05/14 23:00:39;;;;;;;3.78;1.30;;;;;;;10.86;100.00;94414.69;10455013;28;20036;-82
2021/05/14 23:05:40;;;;;;;3.10;1.27;;;;;;;10.92;100.00;94419.72;10455067;28;20088;-82
2021/05/14 23:10:40;;;;;;;5.60;1.40;;;;;;;10.87;100.00;94403.66;10454686;28;20495;-82
2021/05/14 23:15:41;;;;;;;2.33;1.33;;;;;;;10.84;100.00;94400.72;10454771;28;20325;-82
2021/05/14 23:20:42;;;;;;;3.65;1.30;;;;;;;10.90;100.00;94395.03;10454398;28;20171;-83
2021/05/14 23:25:42;;;;;;;2.43;0.97;;;;;;;10.86;100.00;94398.56;10454550;28;20115;-82
2021/05/14 23:30:43;;;;;;;3.80;1.10;;;;;;;10.83;100.00;94401.78;10454344;28;20275;-82
2021/05/14 23:35:43;;;;;;;1.60;1.00;;;;;;;10.83;100.00;94404.50;10453907;28;20126;-82